sensor_id;sensor_type;location;lat;lon;timestamp;P1;durP1;ratioP1;P2;durP2;ratioP2
55372;SDS011;70018;47.838;16.490;2024-02-26T01:20:49;4.13;;;1.75;;
55372;SDS011;70018;47.838;16.490;2024-02-26T01:23:15;1.88;;;1.25;;
55372;SDS011;70018;47.838;16.490;2024-02-26T01:25:42;3.47;;;1.38;;
55372;SDS011;70018;47.838;16.490;2024-02-26T01:28:09;3.40;;;1.50;;
55372;SDS011;70018;47.838;16.490;2024-02-26T01:30:36;1.88;;;1.23;;
55372;SDS011;70018;47.838;16.490;2024-02-26T01:33:02;3.15;;;1.98;;
55372;SDS011;70018;47.838;16.490;2024-02-26T01:35:30;7.93;;;1.58;;
55372;SDS011;70018;47.838;16.490;2024-02-26T01:37:56;2.42;;;1.02;;
55372;SDS011;70018;47.838;16.490;2024-02-26T01:40:27;4.60;;;2.13;;
55372;SDS011;70018;47.838;16.490;2024-02-26T01:42:54;2.80;;;1.70;;
55372;SDS011;70018;47.838;16.490;2024-02-26T01:45:21;2.90;;;1.95;;
55372;SDS011;70018;47.838;16.490;2024-02-26T01:47:50;2.75;;;1.67;;
55372;SDS011;70018;47.838;16.490;2024-02-26T01:50:19;1.85;;;1.42;;
55372;SDS011;70018;47.838;16.490;2024-02-26T01:52:46;3.50;;;1.65;;
55372;SDS011;70018;47.838;16.490;2024-02-26T01:55:15;4.05;;;1.52;;
55372;SDS011;70018;47.838;16.490;2024-02-26T01:57:44;5.57;;;2.55;;
55372;SDS011;70018;47.838;16.490;2024-02-26T02:00:12;2.72;;;1.35;;
55372;SDS011;70018;47.838;16.490;2024-02-26T02:02:41;3.72;;;2.13;;
55372;SDS011;70018;47.838;16.490;2024-02-26T02:05:08;2.75;;;1.90;;
55372;SDS011;70018;47.838;16.490;2024-02-26T02:07:36;4.97;;;1.63;;
55372;SDS011;70018;47.838;16.490;2024-02-26T02:10:03;3.35;;;1.95;;
55372;SDS011;70018;47.838;16.490;2024-02-26T02:12:30;4.13;;;1.83;;
55372;SDS011;70018;47.838;16.490;2024-02-26T02:14:59;4.20;;;2.28;;
55372;SDS011;70018;47.838;16.490;2024-02-26T02:17:27;4.45;;;2.30;;
55372;SDS011;70018;47.838;16.490;2024-02-26T02:19:54;5.60;;;1.60;;
55372;SDS011;70018;47.838;16.490;2024-02-26T02:22:21;7.03;;;2.08;;
55372;SDS011;70018;47.838;16.490;2024-02-26T02:24:52;2.15;;;1.52;;
55372;SDS011;70018;47.838;16.490;2024-02-26T02:27:19;4.82;;;1.60;;
55372;SDS011;70018;47.838;16.490;2024-02-26T02:29:46;5.53;;;2.10;;
55372;SDS011;70018;47.838;16.490;2024-02-26T02:32:15;10.05;;;2.10;;
55372;SDS011;70018;47.838;16.490;2024-02-26T02:34:43;2.72;;;1.45;;
55372;SDS011;70018;47.838;16.490;2024-02-26T02:37:11;3.47;;;1.73;;
55372;SDS011;70018;47.838;16.490;2024-02-26T02:39:37;3.58;;;1.98;;
55372;SDS011;70018;47.838;16.490;2024-02-26T02:42:04;5.93;;;1.80;;
55372;SDS011;70018;47.838;16.490;2024-02-26T02:44:32;4.68;;;2.05;;
55372;SDS011;70018;47.838;16.490;2024-02-26T02:46:58;4.03;;;1.77;;
55372;SDS011;70018;47.838;16.490;2024-02-26T02:49:25;4.10;;;1.63;;
55372;SDS011;70018;47.838;16.490;2024-02-26T02:51:52;2.92;;;1.55;;
55372;SDS011;70018;47.838;16.490;2024-02-26T02:54:23;3.25;;;1.83;;
55372;SDS011;70018;47.838;16.490;2024-02-26T02:56:50;3.45;;;2.03;;
55372;SDS011;70018;47.838;16.490;2024-02-26T02:59:17;2.13;;;1.30;;
55372;SDS011;70018;47.838;16.490;2024-02-26T03:01:44;2.97;;;1.60;;
55372;SDS011;70018;47.838;16.490;2024-02-26T03:04:10;1.13;;;1.00;;
55372;SDS011;70018;47.838;16.490;2024-02-26T03:06:37;3.92;;;1.83;;
55372;SDS011;70018;47.838;16.490;2024-02-26T03:09:04;5.28;;;2.13;;
55372;SDS011;70018;47.838;16.490;2024-02-26T03:11:31;4.47;;;2.05;;
55372;SDS011;70018;47.838;16.490;2024-02-26T03:13:57;3.90;;;1.70;;
55372;SDS011;70018;47.838;16.490;2024-02-26T03:16:24;3.95;;;1.50;;
55372;SDS011;70018;47.838;16.490;2024-02-26T03:18:51;5.32;;;1.77;;
55372;SDS011;70018;47.838;16.490;2024-02-26T03:21:18;1.23;;;1.02;;
55372;SDS011;70018;47.838;16.490;2024-02-26T03:23:45;1.33;;;1.00;;
55372;SDS011;70018;47.838;16.490;2024-02-26T03:26:11;2.03;;;1.33;;
55372;SDS011;70018;47.838;16.490;2024-02-26T03:28:40;2.67;;;1.63;;
55372;SDS011;70018;47.838;16.490;2024-02-26T03:31:07;2.10;;;1.00;;
55372;SDS011;70018;47.838;16.490;2024-02-26T03:33:34;1.50;;;0.90;;
55372;SDS011;70018;47.838;16.490;2024-02-26T03:36:01;1.30;;;1.20;;
55372;SDS011;70018;47.838;16.490;2024-02-26T03:38:29;4.15;;;1.73;;
55372;SDS011;70018;47.838;16.490;2024-02-26T03:40:55;2.13;;;1.27;;
55372;SDS011;70018;47.838;16.490;2024-02-26T03:43:22;3.38;;;1.73;;
55372;SDS011;70018;47.838;16.490;2024-02-26T03:45:49;4.03;;;1.67;;
55372;SDS011;70018;47.838;16.490;2024-02-26T03:48:16;4.50;;;2.53;;
55372;SDS011;70018;47.838;16.490;2024-02-26T03:50:42;3.60;;;2.28;;
55372;SDS011;70018;47.838;16.490;2024-02-26T03:53:09;2.80;;;1.85;;
55372;SDS011;70018;47.838;16.490;2024-02-26T03:55:40;3.88;;;1.58;;
55372;SDS011;70018;47.838;16.490;2024-02-26T03:58:08;5.68;;;2.30;;
55372;SDS011;70018;47.838;16.490;2024-02-26T04:14:05;3.28;;;1.70;;
55372;SDS011;70018;47.838;16.490;2024-02-26T04:19:16;1.00;;;0.90;;
55372;SDS011;70018;47.838;16.490;2024-02-26T04:21:42;2.22;;;1.20;;
55372;SDS011;70018;47.838;16.490;2024-02-26T04:24:09;2.47;;;1.20;;
55372;SDS011;70018;47.838;16.490;2024-02-26T04:26:36;5.00;;;2.00;;
55372;SDS011;70018;47.838;16.490;2024-02-26T04:34:23;3.95;;;2.30;;
55372;SDS011;70018;47.838;16.490;2024-02-26T04:36:50;3.63;;;1.77;;
55372;SDS011;70018;47.838;16.490;2024-02-26T04:39:17;7.53;;;2.72;;
55372;SDS011;70018;47.838;16.490;2024-02-26T04:41:44;3.58;;;2.35;;
55372;SDS011;70018;47.838;16.490;2024-02-26T04:44:11;5.28;;;2.67;;
55372;SDS011;70018;47.838;16.490;2024-02-26T04:46:38;6.13;;;2.42;;
55372;SDS011;70018;47.838;16.490;2024-02-26T05:10:39;4.78;;;2.15;;
55372;SDS011;70018;47.838;16.490;2024-02-26T05:13:07;5.85;;;2.05;;
55372;SDS011;70018;47.838;16.490;2024-02-26T05:15:35;2.35;;;1.80;;
55372;SDS011;70018;47.838;16.490;2024-02-26T05:18:02;3.25;;;1.48;;
55372;SDS011;70018;47.838;16.490;2024-02-26T05:20:29;3.50;;;2.13;;
55372;SDS011;70018;47.838;16.490;2024-02-26T05:22:57;6.68;;;3.22;;
55372;SDS011;70018;47.838;16.490;2024-02-26T05:25:25;4.53;;;2.30;;
55372;SDS011;70018;47.838;16.490;2024-02-26T05:27:52;1.67;;;1.48;;
55372;SDS011;70018;47.838;16.490;2024-02-26T05:30:18;5.43;;;2.00;;
55372;SDS011;70018;47.838;16.490;2024-02-26T05:32:45;5.13;;;1.55;;
55372;SDS011;70018;47.838;16.490;2024-02-26T05:35:12;2.72;;;1.60;;
55372;SDS011;70018;47.838;16.490;2024-02-26T05:37:39;2.90;;;1.83;;
55372;SDS011;70018;47.838;16.490;2024-02-26T05:40:05;4.32;;;1.70;;
55372;SDS011;70018;47.838;16.490;2024-02-26T05:42:32;3.22;;;2.05;;
55372;SDS011;70018;47.838;16.490;2024-02-26T05:44:59;3.67;;;1.67;;
55372;SDS011;70018;47.838;16.490;2024-02-26T05:47:34;1.60;;;1.40;;
55372;SDS011;70018;47.838;16.490;2024-02-26T05:50:01;3.13;;;1.70;;
55372;SDS011;70018;47.838;16.490;2024-02-26T05:52:28;2.80;;;1.63;;
55372;SDS011;70018;47.838;16.490;2024-02-26T05:54:56;2.80;;;2.00;;
55372;SDS011;70018;47.838;16.490;2024-02-26T05:57:22;4.68;;;2.35;;
55372;SDS011;70018;47.838;16.490;2024-02-26T05:59:49;6.03;;;3.10;;
55372;SDS011;70018;47.838;16.490;2024-02-26T06:02:16;2.95;;;1.55;;
55372;SDS011;70018;47.838;16.490;2024-02-26T06:04:43;2.67;;;1.90;;
55372;SDS011;70018;47.838;16.490;2024-02-26T06:07:09;2.00;;;1.20;;
55372;SDS011;70018;47.838;16.490;2024-02-26T06:09:36;2.45;;;1.42;;
55372;SDS011;70018;47.838;16.490;2024-02-26T06:12:03;6.30;;;2.10;;
55372;SDS011;70018;47.838;16.490;2024-02-26T06:14:30;6.57;;;2.00;;
55372;SDS011;70018;47.838;16.490;2024-02-26T06:16:56;3.65;;;2.28;;
55372;SDS011;70018;47.838;16.490;2024-02-26T06:19:23;2.20;;;1.50;;
55372;SDS011;70018;47.838;16.490;2024-02-26T06:21:50;5.28;;;2.25;;
55372;SDS011;70018;47.838;16.490;2024-02-26T06:24:17;3.97;;;2.17;;
55372;SDS011;70018;47.838;16.490;2024-02-26T06:26:44;5.82;;;2.55;;
55372;SDS011;70018;47.838;16.490;2024-02-26T06:29:10;4.15;;;2.03;;
55372;SDS011;70018;47.838;16.490;2024-02-26T06:31:37;6.03;;;1.80;;
55372;SDS011;70018;47.838;16.490;2024-02-26T06:34:04;2.55;;;1.60;;
55372;SDS011;70018;47.838;16.490;2024-02-26T06:36:31;3.25;;;2.17;;
55372;SDS011;70018;47.838;16.490;2024-02-26T08:00:30;4.85;;;1.90;;
55372;SDS011;70018;47.838;16.490;2024-02-26T08:02:57;5.78;;;1.60;;
55372;SDS011;70018;47.838;16.490;2024-02-26T08:05:24;1.58;;;1.30;;
55372;SDS011;70018;47.838;16.490;2024-02-26T08:07:51;3.15;;;1.88;;
55372;SDS011;70018;47.838;16.490;2024-02-26T08:10:18;2.40;;;1.65;;
55372;SDS011;70018;47.838;16.490;2024-02-26T08:12:45;4.25;;;1.92;;
55372;SDS011;70018;47.838;16.490;2024-02-26T08:15:11;2.10;;;1.30;;
55372;SDS011;70018;47.838;16.490;2024-02-26T08:17:38;6.18;;;1.50;;
55372;SDS011;70018;47.838;16.490;2024-02-26T08:20:05;3.10;;;1.20;;
55372;SDS011;70018;47.838;16.490;2024-02-26T08:22:32;5.10;;;1.85;;
55372;SDS011;70018;47.838;16.490;2024-02-26T08:24:59;3.38;;;1.25;;
55372;SDS011;70018;47.838;16.490;2024-02-26T08:27:26;2.05;;;1.20;;
55372;SDS011;70018;47.838;16.490;2024-02-26T08:29:53;2.00;;;0.93;;
55372;SDS011;70018;47.838;16.490;2024-02-26T08:32:19;1.65;;;0.73;;
55372;SDS011;70018;47.838;16.490;2024-02-26T08:34:46;0.77;;;0.60;;
55372;SDS011;70018;47.838;16.490;2024-02-26T08:37:13;1.13;;;0.90;;
55372;SDS011;70018;47.838;16.490;2024-02-26T08:39:40;2.60;;;1.00;;
55372;SDS011;70018;47.838;16.490;2024-02-26T08:42:07;1.85;;;0.93;;
55372;SDS011;70018;47.838;16.490;2024-02-26T08:44:33;4.53;;;0.90;;
55372;SDS011;70018;47.838;16.490;2024-02-26T08:47:00;1.85;;;0.98;;
55372;SDS011;70018;47.838;16.490;2024-02-26T08:49:27;1.70;;;0.63;;
55372;SDS011;70018;47.838;16.490;2024-02-26T08:51:54;1.70;;;0.70;;
55372;SDS011;70018;47.838;16.490;2024-02-26T08:54:20;1.15;;;0.70;;
55372;SDS011;70018;47.838;16.490;2024-02-26T08:56:47;2.17;;;0.60;;
55372;SDS011;70018;47.838;16.490;2024-02-26T08:59:14;1.20;;;0.90;;
55372;SDS011;70018;47.838;16.490;2024-02-26T09:01:42;1.23;;;0.77;;
55372;SDS011;70018;47.838;16.490;2024-02-26T09:04:09;1.83;;;1.02;;
55372;SDS011;70018;47.838;16.490;2024-02-26T09:06:36;1.30;;;0.68;;
55372;SDS011;70018;47.838;16.490;2024-02-26T09:09:02;0.88;;;0.60;;
55372;SDS011;70018;47.838;16.490;2024-02-26T09:11:30;1.45;;;0.95;;
55372;SDS011;70018;47.838;16.490;2024-02-26T09:13:57;0.68;;;0.60;;
55372;SDS011;70018;47.838;16.490;2024-02-26T09:16:24;3.25;;;0.80;;
55372;SDS011;70018;47.838;16.490;2024-02-26T09:18:51;0.50;;;0.50;;
55372;SDS011;70018;47.838;16.490;2024-02-26T09:21:18;1.85;;;0.70;;
55372;SDS011;70018;47.838;16.490;2024-02-26T09:23:49;0.82;;;0.70;;
55372;SDS011;70018;47.838;16.490;2024-02-26T09:26:20;1.05;;;0.60;;
55372;SDS011;70018;47.838;16.490;2024-02-26T09:28:46;1.00;;;0.60;;
55372;SDS011;70018;47.838;16.490;2024-02-26T09:31:14;1.30;;;0.50;;
55372;SDS011;70018;47.838;16.490;2024-02-26T09:33:43;2.55;;;0.63;;
55372;SDS011;70018;47.838;16.490;2024-02-26T09:36:10;3.78;;;0.82;;
55372;SDS011;70018;47.838;16.490;2024-02-26T09:38:37;0.65;;;0.50;;
55372;SDS011;70018;47.838;16.490;2024-02-26T09:41:21;1.27;;;0.73;;
55372;SDS011;70018;47.838;16.490;2024-02-26T09:43:48;1.10;;;0.50;;
55372;SDS011;70018;47.838;16.490;2024-02-26T09:46:16;1.55;;;1.05;;
55372;SDS011;70018;47.838;16.490;2024-02-26T09:48:46;0.88;;;0.70;;
55372;SDS011;70018;47.838;16.490;2024-02-26T09:51:14;1.05;;;0.80;;
55372;SDS011;70018;47.838;16.490;2024-02-26T09:53:43;0.75;;;0.57;;
55372;SDS011;70018;47.838;16.490;2024-02-26T09:56:12;1.33;;;0.60;;
55372;SDS011;70018;47.838;16.490;2024-02-26T09:58:39;1.75;;;0.73;;
55372;SDS011;70018;47.838;16.490;2024-02-26T10:01:13;0.70;;;0.55;;
55372;SDS011;70018;47.838;16.490;2024-02-26T10:03:43;4.28;;;0.70;;
55372;SDS011;70018;47.838;16.490;2024-02-26T10:06:12;1.48;;;0.70;;
55372;SDS011;70018;47.838;16.490;2024-02-26T10:08:40;2.13;;;0.57;;
55372;SDS011;70018;47.838;16.490;2024-02-26T10:11:07;1.50;;;0.82;;
55372;SDS011;70018;47.838;16.490;2024-02-26T10:13:34;3.03;;;0.80;;
55372;SDS011;70018;47.838;16.490;2024-02-26T10:16:02;1.52;;;0.50;;
55372;SDS011;70018;47.838;16.490;2024-02-26T10:18:45;0.60;;;0.50;;
55372;SDS011;70018;47.838;16.490;2024-02-26T10:21:24;1.83;;;0.70;;
55372;SDS011;70018;47.838;16.490;2024-02-26T10:23:51;0.47;;;0.45;;
55372;SDS011;70018;47.838;16.490;2024-02-26T10:26:18;1.52;;;0.73;;
55372;SDS011;70018;47.838;16.490;2024-02-26T10:28:46;0.85;;;0.70;;
55372;SDS011;70018;47.838;16.490;2024-02-26T10:31:18;1.57;;;0.60;;
55372;SDS011;70018;47.838;16.490;2024-02-26T10:33:45;1.98;;;0.50;;
55372;SDS011;70018;47.838;16.490;2024-02-26T10:36:12;0.70;;;0.50;;
55372;SDS011;70018;47.838;16.490;2024-02-26T10:38:39;3.08;;;0.63;;
55372;SDS011;70018;47.838;16.490;2024-02-26T10:41:06;1.63;;;0.50;;
55372;SDS011;70018;47.838;16.490;2024-02-26T10:43:34;1.67;;;0.50;;
55372;SDS011;70018;47.838;16.490;2024-02-26T10:46:01;1.20;;;0.65;;
55372;SDS011;70018;47.838;16.490;2024-02-26T10:48:28;4.70;;;0.77;;
55372;SDS011;70018;47.838;16.490;2024-02-26T10:50:55;0.70;;;0.40;;
55372;SDS011;70018;47.838;16.490;2024-02-26T10:53:23;1.95;;;0.82;;
55372;SDS011;70018;47.838;16.490;2024-02-26T10:55:57;0.85;;;0.52;;
55372;SDS011;70018;47.838;16.490;2024-02-26T10:58:27;0.88;;;0.52;;
55372;SDS011;70018;47.838;16.490;2024-02-26T11:00:56;0.77;;;0.70;;
55372;SDS011;70018;47.838;16.490;2024-02-26T11:03:24;1.25;;;0.57;;
55372;SDS011;70018;47.838;16.490;2024-02-26T11:05:51;0.85;;;0.50;;
55372;SDS011;70018;47.838;16.490;2024-02-26T11:08:19;2.13;;;0.77;;
55372;SDS011;70018;47.838;16.490;2024-02-26T11:10:48;3.10;;;0.85;;
55372;SDS011;70018;47.838;16.490;2024-02-26T11:13:19;2.50;;;0.70;;
55372;SDS011;70018;47.838;16.490;2024-02-26T11:15:49;1.30;;;0.50;;
55372;SDS011;70018;47.838;16.490;2024-02-26T11:18:19;1.00;;;0.73;;
55372;SDS011;70018;47.838;16.490;2024-02-26T11:20:46;1.80;;;0.77;;
55372;SDS011;70018;47.838;16.490;2024-02-26T11:23:14;0.52;;;0.40;;
55372;SDS011;70018;47.838;16.490;2024-02-26T11:25:42;1.48;;;0.68;;
55372;SDS011;70018;47.838;16.490;2024-02-26T11:28:11;2.75;;;0.70;;
55372;SDS011;70018;47.838;16.490;2024-02-26T11:30:42;0.52;;;0.52;;
55372;SDS011;70018;47.838;16.490;2024-02-26T11:33:11;1.30;;;0.73;;
55372;SDS011;70018;47.838;16.490;2024-02-26T11:35:39;0.47;;;0.47;;
55372;SDS011;70018;47.838;16.490;2024-02-26T11:38:06;2.80;;;0.70;;
55372;SDS011;70018;47.838;16.490;2024-02-26T11:40:37;0.90;;;0.55;;
55372;SDS011;70018;47.838;16.490;2024-02-26T11:43:06;0.73;;;0.70;;
55372;SDS011;70018;47.838;16.490;2024-02-26T11:48:12;1.50;;;0.90;;
55372;SDS011;70018;47.838;16.490;2024-02-26T11:50:40;1.00;;;0.80;;
55372;SDS011;70018;47.838;16.490;2024-02-26T11:53:21;1.50;;;0.88;;
55372;SDS011;70018;47.838;16.490;2024-02-26T11:56:13;0.60;;;0.50;;
55372;SDS011;70018;47.838;16.490;2024-02-26T11:58:43;1.15;;;0.55;;
55372;SDS011;70018;47.838;16.490;2024-02-26T12:04:26;3.72;;;2.10;;
55372;SDS011;70018;47.838;16.490;2024-02-26T12:06:57;1.20;;;0.52;;
55372;SDS011;70018;47.838;16.490;2024-02-26T12:09:39;0.95;;;0.68;;
55372;SDS011;70018;47.838;16.490;2024-02-26T12:12:09;2.08;;;0.68;;
55372;SDS011;70018;47.838;16.490;2024-02-26T12:14:51;1.60;;;0.73;;
55372;SDS011;70018;47.838;16.490;2024-02-26T12:17:19;2.85;;;1.00;;
55372;SDS011;70018;47.838;16.490;2024-02-26T12:19:48;3.10;;;0.80;;
55372;SDS011;70018;47.838;16.490;2024-02-26T12:22:15;1.73;;;0.85;;
55372;SDS011;70018;47.838;16.490;2024-02-26T12:24:42;3.08;;;0.70;;
55372;SDS011;70018;47.838;16.490;2024-02-26T12:27:09;1.20;;;0.68;;
55372;SDS011;70018;47.838;16.490;2024-02-26T12:29:36;2.83;;;0.85;;
55372;SDS011;70018;47.838;16.490;2024-02-26T12:32:04;1.95;;;0.88;;
55372;SDS011;70018;47.838;16.490;2024-02-26T12:34:33;1.27;;;1.10;;
55372;SDS011;70018;47.838;16.490;2024-02-26T12:37:00;1.25;;;0.50;;
55372;SDS011;70018;47.838;16.490;2024-02-26T12:39:27;0.63;;;0.50;;
55372;SDS011;70018;47.838;16.490;2024-02-26T12:41:55;4.25;;;1.30;;
55372;SDS011;70018;47.838;16.490;2024-02-26T12:44:26;3.58;;;0.80;;
55372;SDS011;70018;47.838;16.490;2024-02-26T12:47:11;4.75;;;0.77;;
55372;SDS011;70018;47.838;16.490;2024-02-26T12:49:42;3.00;;;0.95;;
55372;SDS011;70018;47.838;16.490;2024-02-26T12:52:10;1.75;;;0.70;;
55372;SDS011;70018;47.838;16.490;2024-02-26T12:54:37;1.70;;;0.80;;
55372;SDS011;70018;47.838;16.490;2024-02-26T12:57:05;0.30;;;0.30;;
55372;SDS011;70018;47.838;16.490;2024-02-26T12:59:34;0.95;;;0.60;;
55372;SDS011;70018;47.838;16.490;2024-02-26T13:02:03;0.40;;;0.40;;
55372;SDS011;70018;47.838;16.490;2024-02-26T13:04:33;2.63;;;0.70;;
55372;SDS011;70018;47.838;16.490;2024-02-26T13:07:03;1.67;;;0.77;;
55372;SDS011;70018;47.838;16.490;2024-02-26T13:09:34;0.63;;;0.50;;
55372;SDS011;70018;47.838;16.490;2024-02-26T13:12:05;1.58;;;0.60;;
55372;SDS011;70018;47.838;16.490;2024-02-26T13:14:33;0.50;;;0.50;;
55372;SDS011;70018;47.838;16.490;2024-02-26T13:17:00;0.80;;;0.60;;
55372;SDS011;70018;47.838;16.490;2024-02-26T13:19:28;0.70;;;0.50;;
55372;SDS011;70018;47.838;16.490;2024-02-26T13:21:55;0.30;;;0.30;;
55372;SDS011;70018;47.838;16.490;2024-02-26T13:24:22;1.65;;;0.70;;
55372;SDS011;70018;47.838;16.490;2024-02-26T13:26:55;1.08;;;0.45;;
55372;SDS011;70018;47.838;16.490;2024-02-26T13:29:22;0.75;;;0.50;;
55372;SDS011;70018;47.838;16.490;2024-02-26T13:31:57;0.88;;;0.40;;
55372;SDS011;70018;47.838;16.490;2024-02-26T13:34:25;0.40;;;0.32;;
55372;SDS011;70018;47.838;16.490;2024-02-26T13:36:57;0.70;;;0.50;;
55372;SDS011;70018;47.838;16.490;2024-02-26T13:39:24;0.95;;;0.50;;
55372;SDS011;70018;47.838;16.490;2024-02-26T13:41:52;0.90;;;0.43;;
55372;SDS011;70018;47.838;16.490;2024-02-26T13:44:20;0.40;;;0.40;;
55372;SDS011;70018;47.838;16.490;2024-02-26T13:46:47;1.45;;;0.57;;
55372;SDS011;70018;47.838;16.490;2024-02-26T13:49:16;0.40;;;0.40;;
55372;SDS011;70018;47.838;16.490;2024-02-26T13:51:43;0.73;;;0.40;;
55372;SDS011;70018;47.838;16.490;2024-02-26T13:54:10;1.60;;;0.50;;
55372;SDS011;70018;47.838;16.490;2024-02-26T13:56:37;1.55;;;0.35;;
55372;SDS011;70018;47.838;16.490;2024-02-26T13:59:04;2.83;;;0.55;;
55372;SDS011;70018;47.838;16.490;2024-02-26T14:01:31;0.73;;;0.38;;
55372;SDS011;70018;47.838;16.490;2024-02-26T14:04:00;0.30;;;0.30;;
55372;SDS011;70018;47.838;16.490;2024-02-26T14:06:28;0.52;;;0.50;;
55372;SDS011;70018;47.838;16.490;2024-02-26T14:08:57;1.00;;;0.38;;
55372;SDS011;70018;47.838;16.490;2024-02-26T14:11:25;2.03;;;0.57;;
55372;SDS011;70018;47.838;16.490;2024-02-26T14:13:52;0.75;;;0.40;;
55372;SDS011;70018;47.838;16.490;2024-02-26T14:16:18;0.30;;;0.28;;
55372;SDS011;70018;47.838;16.490;2024-02-26T14:18:46;2.08;;;0.60;;
55372;SDS011;70018;47.838;16.490;2024-02-26T14:21:13;0.77;;;0.50;;
55372;SDS011;70018;47.838;16.490;2024-02-26T14:23:41;6.28;;;0.70;;
55372;SDS011;70018;47.838;16.490;2024-02-26T14:26:09;0.47;;;0.30;;
55372;SDS011;70018;47.838;16.490;2024-02-26T14:28:36;0.63;;;0.30;;
55372;SDS011;70018;47.838;16.490;2024-02-26T14:31:03;0.85;;;0.50;;
55372;SDS011;70018;47.838;16.490;2024-02-26T14:33:32;0.88;;;0.50;;
55372;SDS011;70018;47.838;16.490;2024-02-26T14:35:59;0.30;;;0.30;;
55372;SDS011;70018;47.838;16.490;2024-02-26T14:38:26;2.78;;;0.60;;
55372;SDS011;70018;47.838;16.490;2024-02-26T14:40:52;1.33;;;0.70;;
55372;SDS011;70018;47.838;16.490;2024-02-26T14:43:19;0.50;;;0.40;;
55372;SDS011;70018;47.838;16.490;2024-02-26T14:45:46;1.35;;;0.70;;
55372;SDS011;70018;47.838;16.490;2024-02-26T14:48:12;0.43;;;0.30;;
55372;SDS011;70018;47.838;16.490;2024-02-26T14:50:40;0.40;;;0.30;;
55372;SDS011;70018;47.838;16.490;2024-02-26T14:53:06;1.05;;;0.60;;
55372;SDS011;70018;47.838;16.490;2024-02-26T14:55:33;0.65;;;0.50;;
55372;SDS011;70018;47.838;16.490;2024-02-26T14:58:01;0.43;;;0.43;;
55372;SDS011;70018;47.838;16.490;2024-02-26T15:00:28;0.77;;;0.47;;
55372;SDS011;70018;47.838;16.490;2024-02-26T15:02:55;0.50;;;0.43;;
55372;SDS011;70018;47.838;16.490;2024-02-26T15:05:22;0.32;;;0.32;;
55372;SDS011;70018;47.838;16.490;2024-02-26T15:07:49;1.00;;;0.50;;
55372;SDS011;70018;47.838;16.490;2024-02-26T15:10:15;0.75;;;0.52;;
55372;SDS011;70018;47.838;16.490;2024-02-26T15:12:42;0.75;;;0.35;;
55372;SDS011;70018;47.838;16.490;2024-02-26T15:15:09;0.70;;;0.60;;
55372;SDS011;70018;47.838;16.490;2024-02-26T15:17:36;1.23;;;0.60;;
55372;SDS011;70018;47.838;16.490;2024-02-26T15:20:03;0.57;;;0.57;;
55372;SDS011;70018;47.838;16.490;2024-02-26T15:22:34;2.33;;;0.50;;
55372;SDS011;70018;47.838;16.490;2024-02-26T15:25:00;0.57;;;0.45;;
55372;SDS011;70018;47.838;16.490;2024-02-26T15:27:27;4.35;;;1.20;;
55372;SDS011;70018;47.838;16.490;2024-02-26T15:29:54;0.98;;;0.50;;
55372;SDS011;70018;47.838;16.490;2024-02-26T15:32:24;3.92;;;0.65;;
55372;SDS011;70018;47.838;16.490;2024-02-26T15:34:51;1.02;;;0.63;;
55372;SDS011;70018;47.838;16.490;2024-02-26T15:37:18;0.60;;;0.50;;
55372;SDS011;70018;47.838;16.490;2024-02-26T15:39:45;0.40;;;0.40;;
55372;SDS011;70018;47.838;16.490;2024-02-26T15:42:12;0.70;;;0.52;;
55372;SDS011;70018;47.838;16.490;2024-02-26T15:44:39;0.75;;;0.40;;
55372;SDS011;70018;47.838;16.490;2024-02-26T15:47:06;0.60;;;0.40;;
55372;SDS011;70018;47.838;16.490;2024-02-26T15:49:33;0.30;;;0.20;;
55372;SDS011;70018;47.838;16.490;2024-02-26T15:52:01;0.20;;;0.20;;
55372;SDS011;70018;47.838;16.490;2024-02-26T15:54:30;1.13;;;0.70;;
55372;SDS011;70018;47.838;16.490;2024-02-26T15:56:57;1.00;;;0.30;;
55372;SDS011;70018;47.838;16.490;2024-02-26T15:59:24;0.17;;;0.17;;
55372;SDS011;70018;47.838;16.490;2024-02-26T16:01:51;0.60;;;0.50;;
55372;SDS011;70018;47.838;16.490;2024-02-26T16:04:18;2.55;;;0.47;;
55372;SDS011;70018;47.838;16.490;2024-02-26T16:06:46;0.40;;;0.30;;
55372;SDS011;70018;47.838;16.490;2024-02-26T16:09:15;0.45;;;0.40;;
55372;SDS011;70018;47.838;16.490;2024-02-26T16:11:41;2.53;;;0.80;;
55372;SDS011;70018;47.838;16.490;2024-02-26T16:16:56;2.47;;;0.63;;
55372;SDS011;70018;47.838;16.490;2024-02-26T16:19:27;3.80;;;0.70;;
55372;SDS011;70018;47.838;16.490;2024-02-26T16:21:54;0.40;;;0.40;;
55372;SDS011;70018;47.838;16.490;2024-02-26T16:24:21;0.65;;;0.60;;
55372;SDS011;70018;47.838;16.490;2024-02-26T16:26:48;0.40;;;0.40;;
55372;SDS011;70018;47.838;16.490;2024-02-26T16:29:15;0.77;;;0.50;;
55372;SDS011;70018;47.838;16.490;2024-02-26T16:31:42;1.02;;;0.70;;
55372;SDS011;70018;47.838;16.490;2024-02-26T16:34:09;0.28;;;0.28;;
55372;SDS011;70018;47.838;16.490;2024-02-26T16:36:36;0.30;;;0.30;;
55372;SDS011;70018;47.838;16.490;2024-02-26T16:39:03;0.85;;;0.47;;
55372;SDS011;70018;47.838;16.490;2024-02-26T16:41:32;0.47;;;0.47;;
55372;SDS011;70018;47.838;16.490;2024-02-26T16:44:00;2.28;;;0.85;;
55372;SDS011;70018;47.838;16.490;2024-02-26T16:46:26;1.52;;;0.50;;
55372;SDS011;70018;47.838;16.490;2024-02-26T16:48:53;0.50;;;0.40;;
55372;SDS011;70018;47.838;16.490;2024-02-26T16:51:20;0.50;;;0.30;;
55372;SDS011;70018;47.838;16.490;2024-02-26T16:53:47;0.80;;;0.43;;
55372;SDS011;70018;47.838;16.490;2024-02-26T16:56:15;0.55;;;0.43;;
55372;SDS011;70018;47.838;16.490;2024-02-26T16:58:42;0.20;;;0.20;;
55372;SDS011;70018;47.838;16.490;2024-02-26T17:01:09;0.47;;;0.40;;
55372;SDS011;70018;47.838;16.490;2024-02-26T17:03:37;0.88;;;0.50;;
55372;SDS011;70018;47.838;16.490;2024-02-26T17:06:04;0.43;;;0.40;;
55372;SDS011;70018;47.838;16.490;2024-02-26T17:08:31;0.70;;;0.47;;
55372;SDS011;70018;47.838;16.490;2024-02-26T17:11:00;0.88;;;0.57;;
55372;SDS011;70018;47.838;16.490;2024-02-26T17:13:27;0.32;;;0.30;;
55372;SDS011;70018;47.838;16.490;2024-02-26T17:15:56;0.65;;;0.50;;
55372;SDS011;70018;47.838;16.490;2024-02-26T17:18:23;1.25;;;0.50;;
55372;SDS011;70018;47.838;16.490;2024-02-26T17:20:50;1.70;;;0.88;;
55372;SDS011;70018;47.838;16.490;2024-02-26T17:23:17;0.65;;;0.60;;
55372;SDS011;70018;47.838;16.490;2024-02-26T17:25:43;0.85;;;0.60;;
55372;SDS011;70018;47.838;16.490;2024-02-26T17:28:10;1.67;;;0.52;;
55372;SDS011;70018;47.838;16.490;2024-02-26T17:30:38;1.10;;;0.70;;
55372;SDS011;70018;47.838;16.490;2024-02-26T17:33:06;0.90;;;0.57;;
55372;SDS011;70018;47.838;16.490;2024-02-26T17:35:33;0.57;;;0.45;;
55372;SDS011;70018;47.838;16.490;2024-02-26T17:38:00;0.50;;;0.45;;
55372;SDS011;70018;47.838;16.490;2024-02-26T17:40:27;1.02;;;0.70;;
55372;SDS011;70018;47.838;16.490;2024-02-26T17:42:54;1.58;;;0.47;;
55372;SDS011;70018;47.838;16.490;2024-02-26T17:45:21;1.10;;;0.65;;
55372;SDS011;70018;47.838;16.490;2024-02-26T17:47:50;1.95;;;1.00;;
55372;SDS011;70018;47.838;16.490;2024-02-26T17:50:17;2.42;;;1.20;;
55372;SDS011;70018;47.838;16.490;2024-02-26T17:52:44;5.18;;;1.40;;
55372;SDS011;70018;47.838;16.490;2024-02-26T17:55:11;2.10;;;1.13;;
55372;SDS011;70018;47.838;16.490;2024-02-26T17:57:38;2.40;;;1.08;;
55372;SDS011;70018;47.838;16.490;2024-02-26T18:56:17;0.30;;;0.30;;
55372;SDS011;70018;47.838;16.490;2024-02-26T19:01:25;0.57;;;0.57;;
55372;SDS011;70018;47.838;16.490;2024-02-26T19:03:52;0.43;;;0.43;;
55372;SDS011;70018;47.838;16.490;2024-02-26T19:06:19;0.55;;;0.40;;
55372;SDS011;70018;47.838;16.490;2024-02-26T19:08:46;0.40;;;0.40;;